Time;durP1;ratioP1;P1;durP2;ratioP2;P2;SDS_P1;SDS_P2;PMS_P1;PMS_P2;Temp;Humidity;BMP_temperature;BMP_pressure;BME280_temperature;BME280_humidity;BME280_pressure;Samples;Min_cycle;Max_cycle;Signal;HPM_P1;HPM_P2
2022/05/30 00:00:20;;;;;;;13.43;7.80;;;;;;;20.32;98.50;99583.50;4992589;28;20524;-73
2022/05/30 00:02:46;;;;;;;13.90;8.27;;;;;;;20.20;98.06;99554.91;4994723;28;20121;-74
2022/05/30 00:05:12;;;;;;;12.32;7.55;;;;;;;20.43;97.74;99612.16;4992836;28;20022;-73
2022/05/30 00:07:38;;;;;;;13.50;8.00;;;;;;;19.92;99.91;99625.22;4993344;28;20035;-73
2022/05/30 00:10:06;;;;;;;12.98;7.88;;;;;;;19.64;100.00;99617.72;5005948;28;20029;-72
2022/05/30 00:12:32;;;;;;;12.75;8.30;;;;;;;19.72;100.00;99631.56;5012696;28;20036;-73
2022/05/30 00:14:57;;;;;;;13.45;8.35;;;;;;;19.90;100.00;99650.56;5012221;28;20038;-74
2022/05/30 00:17:23;;;;;;;12.85;8.20;;;;;;;19.90;100.00;99661.03;5012182;28;20053;-74
2022/05/30 00:19:48;;;;;;;10.90;8.60;;;;;;;19.83;100.00;99717.91;5011614;28;20049;-73
2022/05/30 00:22:14;;;;;;;14.00;10.05;;;;;;;19.73;100.00;99704.03;5012104;28;20033;-73
2022/05/30 00:24:41;;;;;;;13.45;9.95;;;;;;;19.73;100.00;99672.59;5011918;28;20028;-73
2022/05/30 00:27:07;;;;;;;12.93;10.30;;;;;;;19.61;100.00;99641.34;5012027;28;20137;-73
2022/05/30 00:29:33;;;;;;;16.73;9.60;;;;;;;19.70;100.00;99639.47;5011824;28;20457;-71
2022/05/30 00:31:58;;;;;;;17.00;10.18;;;;;;;19.92;100.00;99640.94;5012014;28;20068;-74
2022/05/30 00:34:25;;;;;;;14.70;9.30;;;;;;;20.13;100.00;99655.47;5011607;28;20117;-73
2022/05/30 00:36:50;;;;;;;12.95;9.45;;;;;;;20.23;100.00;99646.56;5011940;28;20032;-74
2022/05/30 00:39:16;;;;;;;15.15;9.68;;;;;;;20.35;100.00;99638.50;5012002;28;20113;-74
2022/05/30 00:41:41;;;;;;;18.73;9.10;;;;;;;20.27;98.97;99631.66;5006532;28;20037;-73
2022/05/30 00:44:07;;;;;;;19.13;9.65;;;;;;;20.34;99.35;99621.03;4992084;28;20378;-73
2022/05/30 00:46:33;;;;;;;16.45;8.88;;;;;;;20.44;100.00;99606.03;5009315;28;20030;-75
2022/05/30 00:49:08;;;;;;;13.70;8.43;;;;;;;20.49;100.00;99588.44;5011522;28;20025;-75
2022/05/30 00:51:39;;;;;;;13.32;7.72;;;;;;;20.52;100.00;99567.44;5011685;28;20104;-73
2022/05/30 00:54:07;;;;;;;14.05;6.70;;;;;;;20.36;100.00;99534.50;5011889;28;20125;-76
2022/05/30 00:56:37;;;;;;;14.35;5.82;;;;;;;20.07;99.81;99550.75;5011584;28;20096;-74
2022/05/30 00:59:04;;;;;;;17.42;7.43;;;;;;;20.08;100.00;99542.88;5011719;28;20038;-74
2022/05/30 01:01:32;;;;;;;17.67;6.95;;;;;;;20.10;100.00;99533.22;5008524;28;20139;-75
2022/05/30 01:06:47;;;;;;;10.73;5.00;;;;;;;19.87;100.00;99489.94;5011549;28;20495;-75
2022/05/30 01:09:20;;;;;;;13.50;5.47;;;;;;;20.08;100.00;99507.94;5011514;28;20028;-76
2022/05/30 01:12:01;;;;;;;16.50;6.13;;;;;;;19.98;100.00;99481.91;5011091;28;20030;-75
2022/05/30 01:14:30;;;;;;;13.85;5.68;;;;;;;20.01;100.00;99489.72;5011237;28;20042;-73
2022/05/30 01:16:57;;;;;;;16.02;6.25;;;;;;;19.73;100.00;99477.03;5010978;28;20044;-76
2022/05/30 01:19:50;;;;;;;17.70;6.90;;;;;;;19.39;100.00;99495.91;5011255;28;20026;-75
2022/05/30 01:22:34;;;;;;;14.05;7.30;;;;;;;19.15;100.00;99502.38;5010975;28;20030;-75
2022/05/30 01:25:43;;;;;;;12.77;7.88;;;;;;;18.91;100.00;99462.56;5011150;28;20041;-75
2022/05/30 01:28:23;;;;;;;14.55;8.00;;;;;;;18.94;100.00;99493.06;5008515;28;20093;-75
2022/05/30 01:30:49;;;;;;;19.83;8.63;;;;;;;18.79;100.00;99470.56;5006962;28;20855;-75
2022/05/30 01:33:16;;;;;;;14.15;8.88;;;;;;;18.70;100.00;99461.06;5008313;28;20116;-72
2022/05/30 01:35:42;;;;;;;16.65;7.93;;;;;;;18.67;100.00;99482.03;5008110;28;20033;-76
2022/05/30 01:38:08;;;;;;;15.63;8.20;;;;;;;18.77;100.00;99477.56;5008333;28;20046;-74
2022/05/30 01:40:33;;;;;;;11.85;7.20;;;;;;;18.81;100.00;99494.91;5008120;28;20125;-75
2022/05/30 01:42:59;;;;;;;11.20;7.25;;;;;;;18.82;100.00;99496.66;5008148;28;20121;-74
2022/05/30 01:45:26;;;;;;;13.15;7.40;;;;;;;18.69;100.00;99463.69;5007742;28;20054;-74
2022/05/30 01:47:51;;;;;;;10.85;7.07;;;;;;;18.83;100.00;99490.53;5008033;28;20057;-76
2022/05/30 01:50:18;;;;;;;10.50;6.20;;;;;;;18.67;100.00;99494.25;5008114;28;20123;-74
2022/05/30 01:52:44;;;;;;;20.48;8.13;;;;;;;18.62;100.00;99496.03;5007996;28;20734;-73
2022/05/30 01:55:09;;;;;;;12.27;7.45;;;;;;;18.75;100.00;99489.75;5008028;28;20555;-75
2022/05/30 01:57:35;;;;;;;11.55;7.63;;;;;;;18.88;100.00;99514.03;5007621;28;20042;-75
2022/05/30 02:00:00;;;;;;;17.42;7.85;;;;;;;18.20;100.00;99505.16;5007882;28;20033;-75
2022/05/30 02:02:26;;;;;;;12.77;7.72;;;;;;;18.03;100.00;99541.03;5007942;28;20563;-73
2022/05/30 02:04:53;;;;;;;16.08;9.90;;;;;;;18.02;100.00;99534.94;5009792;28;20033;-75
2022/05/30 02:07:19;;;;;;;11.55;9.13;;;;;;;17.58;100.00;99539.63;5010234;28;20033;-73
2022/05/30 02:09:44;;;;;;;13.63;8.82;;;;;;;17.49;100.00;99557.91;5010467;28;20489;-74
2022/05/30 02:12:11;;;;;;;13.13;8.90;;;;;;;17.52;100.00;99550.09;5010109;28;20114;-73
2022/05/30 02:14:36;;;;;;;13.57;9.50;;;;;;;17.53;100.00;99545.72;5005749;28;20026;-73
2022/05/30 02:17:04;;;;;;;15.68;9.60;;;;;;;17.44;100.00;99549.25;5000476;28;20046;-74
2022/05/30 02:19:39;;;;;;;13.05;9.05;;;;;;;17.55;100.00;99554.41;5010210;28;20113;-74
2022/05/30 02:22:07;;;;;;;12.98;9.73;;;;;;;17.26;100.00;99542.41;5010026;28;20527;-71
2022/05/30 02:24:33;;;;;;;14.52;10.20;;;;;;;17.48;100.00;99569.22;5010267;28;20092;-71
2022/05/30 02:26:59;;;;;;;15.52;9.38;;;;;;;17.65;100.00;99578.72;5023836;28;20427;-73
2022/05/30 02:29:24;;;;;;;12.40;9.73;;;;;;;17.57;100.00;99574.41;5010259;28;20026;-73
2022/05/30 02:31:50;;;;;;;12.35;9.20;;;;;;;17.34;100.00;99555.41;5010222;28;20026;-73
2022/05/30 02:37:00;;;;;;;12.15;10.68;;;;;;;17.54;100.00;99587.47;5010197;28;20467;-73
2022/05/30 02:39:27;;;;;;;13.07;9.63;;;;;;;17.51;100.00;99597.94;5010010;28;20037;-73
2022/05/30 02:41:53;;;;;;;16.45;10.38;;;;;;;17.45;100.00;99587.53;5010203;28;20029;-73
2022/05/30 02:44:21;;;;;;;13.00;9.68;;;;;;;17.35;100.00;99618.00;5014128;28;20026;-72
2022/05/30 02:46:52;;;;;;;15.02;11.30;;;;;;;17.20;100.00;99613.72;5013694;28;20029;-72
2022/05/30 02:49:18;;;;;;;14.38;9.90;;;;;;;17.25;100.00;99600.69;5014319;28;20030;-73
2022/05/30 02:51:44;;;;;;;12.98;9.55;;;;;;;17.07;100.00;99593.78;5013994;28;20026;-72
2022/05/30 02:54:11;;;;;;;11.75;9.30;;;;;;;16.81;100.00;99585.16;5013754;28;20467;-73
2022/05/30 02:56:38;;;;;;;14.77;10.68;;;;;;;16.76;100.00;99586.91;5013902;28;20036;-76
2022/05/30 02:59:03;;;;;;;12.63;9.88;;;;;;;16.81;100.00;99607.75;5013732;28;20036;-74
2022/05/30 03:01:31;;;;;;;11.60;9.57;;;;;;;17.09;100.00;99625.94;5013810;28;20030;-74
2022/05/30 03:03:57;;;;;;;10.98;9.68;;;;;;;17.35;100.00;99617.16;5013360;28;20028;-70
2022/05/30 03:06:23;;;;;;;12.85;8.95;;;;;;;17.57;100.00;99637.06;5013702;28;20693;-73
2022/05/30 03:08:48;;;;;;;14.40;8.88;;;;;;;17.65;100.00;99623.09;5013210;28;20041;-73
2022/05/30 03:11:14;;;;;;;10.93;8.75;;;;;;;17.79;100.00;99634.31;5013641;28;20113;-75
2022/05/30 03:13:39;;;;;;;12.15;8.98;;;;;;;17.69;100.00;99609.16;5013386;28;20461;-74
2022/05/30 03:16:05;;;;;;;10.57;9.40;;;;;;;18.05;100.00;99648.97;5013600;28;20033;-73
2022/05/30 03:18:31;;;;;;;12.75;8.48;;;;;;;18.08;100.00;99648.94;5013342;28;20034;-73
2022/05/30 03:20:57;;;;;;;16.17;9.55;;;;;;;17.99;100.00;99655.09;5013362;28;20061;-70
2022/05/30 03:23:22;;;;;;;13.50;9.18;;;;;;;17.67;100.00;99621.31;5013457;28;20466;-73
2022/05/30 03:25:48;;;;;;;10.45;9.07;;;;;;;17.91;100.00;99652.50;5012994;28;20041;-71
2022/05/30 03:28:14;;;;;;;12.60;8.63;;;;;;;18.12;100.00;99658.50;5013367;28;20029;-73
2022/05/30 03:30:39;;;;;;;12.40;9.93;;;;;;;18.31;100.00;99663.59;5013326;28;20091;-71
2022/05/30 03:33:07;;;;;;;12.65;9.02;;;;;;;18.22;100.00;99628.81;5012864;28;20022;-73
2022/05/30 03:35:33;;;;;;;9.98;8.65;;;;;;;18.47;100.00;99673.03;5011441;28;20084;-73
2022/05/30 03:37:58;;;;;;;13.95;8.75;;;;;;;18.30;100.00;99685.38;5013115;28;20416;-73
2022/05/30 03:40:24;;;;;;;12.30;7.97;;;;;;;18.18;100.00;99695.03;5011470;28;20030;-74
2022/05/30 03:42:50;;;;;;;16.42;9.18;;;;;;;18.21;100.00;99681.94;5012902;28;20022;-74
2022/05/30 03:45:15;;;;;;;10.10;8.95;;;;;;;18.17;100.00;99671.53;5011647;28;20049;-73
2022/05/30 03:47:45;;;;;;;12.23;8.90;;;;;;;18.23;100.00;99685.44;5012564;28;20022;-73
2022/05/30 03:50:11;;;;;;;;;;;;;;;18.33;100.00;99707.13;5013492;28;20030;-73
2022/05/30 03:52:37;;;;;;;14.13;8.60;;;;;;;18.25;100.00;99712.38;5012711;28;19984;-73
2022/05/30 03:55:11;;;;;;;10.60;8.75;;;;;;;18.04;100.00;99715.16;4997669;28;20061;-73
2022/05/30 03:57:38;;;;;;;13.13;8.90;;;;;;;17.93;100.00;99708.22;5012680;28;20037;-72
2022/05/30 04:00:04;;;;;;;14.85;9.18;;;;;;;17.76;100.00;99699.59;5012554;28;20029;-75
2022/05/30 04:02:30;;;;;;;11.27;9.27;;;;;;;17.52;100.00;99688.41;5012482;28;20034;-73
2022/05/30 04:04:55;;;;;;;13.77;9.75;;;;;;;17.68;100.00;99709.19;5011967;28;20181;-72
2022/05/30 04:07:21;;;;;;;13.48;9.60;;;;;;;17.71;100.00;99724.88;5012803;28;20518;-75
2022/05/30 04:09:46;;;;;;;12.10;9.45;;;;;;;17.70;100.00;99704.84;5012434;28;20637;-75
2022/05/30 04:12:12;;;;;;;11.80;10.00;;;;;;;17.79;100.00;99737.00;4998198;28;20040;-74
2022/05/30 04:14:37;;;;;;;13.68;9.38;;;;;;;17.81;100.00;99736.13;5012295;28;20180;-75
2022/05/30 04:17:03;;;;;;;15.80;9.38;;;;;;;17.82;100.00;99743.97;5012158;28;20105;-74
2022/05/30 04:19:29;;;;;;;12.63;9.73;;;;;;;17.89;100.00;99748.25;5012246;28;20108;-75
2022/05/30 04:21:54;;;;;;;14.88;9.93;;;;;;;17.93;100.00;99750.00;4998016;28;20040;-74
2022/05/30 04:24:20;;;;;;;13.48;10.45;;;;;;;17.74;100.00;99712.63;4998131;28;20034;-73
2022/05/30 04:26:46;;;;;;;13.55;9.82;;;;;;;17.77;100.00;99714.41;5012148;28;20050;-78
2022/05/30 04:29:11;;;;;;;14.93;9.98;;;;;;;17.95;100.00;99752.63;4998912;28;20410;-75
2022/05/30 04:31:37;;;;;;;13.38;10.10;;;;;;;17.85;100.00;99750.91;4995690;28;20093;-75
2022/05/30 04:34:03;;;;;;;13.57;10.23;;;;;;;17.78;100.00;99755.28;4993019;28;20743;-75
2022/05/30 04:36:28;;;;;;;13.18;10.02;;;;;;;17.58;100.00;99713.59;4993913;28;20044;-74
2022/05/30 04:38:54;;;;;;;13.80;10.95;;;;;;;17.69;100.00;99752.72;4992377;28;20030;-74
2022/05/30 04:41:19;;;;;;;18.63;11.25;;;;;;;17.42;100.00;99698.00;4992616;28;20613;-74
2022/05/30 04:43:44;;;;;;;16.42;10.73;;;;;;;17.77;100.00;99759.63;4992708;28;20030;-78
2022/05/30 04:46:13;;;;;;;14.07;10.57;;;;;;;17.85;100.00;99757.00;4998419;28;20036;-78
2022/05/30 04:48:40;;;;;;;14.18;11.20;;;;;;;17.58;100.00;99713.59;5009329;28;20038;-75
2022/05/30 04:51:06;;;;;;;13.32;10.20;;;;;;;17.68;100.00;99712.66;5009811;28;20088;-75
2022/05/30 04:53:32;;;;;;;14.98;10.50;;;;;;;18.01;100.00;99772.63;5011189;28;20033;-76
2022/05/30 04:55:58;;;;;;;16.15;10.15;;;;;;;18.19;100.00;99774.28;5011980;28;20369;-76
2022/05/30 04:58:24;;;;;;;11.68;9.88;;;;;;;18.25;100.00;99777.72;5004191;28;20041;-76
2022/05/30 05:00:55;;;;;;;15.80;10.50;;;;;;;18.10;100.00;99736.00;4992219;28;20034;-75
2022/05/30 05:03:20;;;;;;;15.02;10.27;;;;;;;18.41;100.00;99775.88;4992320;28;20393;-79
2022/05/30 05:05:46;;;;;;;16.17;10.52;;;;;;;18.49;100.00;99777.56;4991848;28;20033;-76
2022/05/30 05:08:14;;;;;;;14.20;10.60;;;;;;;18.48;100.00;99783.69;4998390;28;20033;-75
2022/05/30 05:10:47;;;;;;;15.30;11.07;;;;;;;18.40;100.00;99747.16;5006970;28;20026;-76
2022/05/30 05:13:13;;;;;;;15.20;10.63;;;;;;;18.76;100.00;99768.66;5002729;28;20031;-77
2022/05/30 05:15:38;;;;;;;16.10;10.93;;;;;;;18.87;100.00;99772.06;5001478;28;20018;-77
2022/05/30 05:18:04;;;;;;;18.95;10.32;;;;;;;18.79;100.00;99752.97;5002225;28;20030;-77
2022/05/30 05:20:36;;;;;;;13.45;10.23;;;;;;;19.02;100.00;99785.94;5000333;28;20470;-76
2022/05/30 05:23:01;;;;;;;13.32;10.13;;;;;;;19.14;100.00;99777.97;4991858;28;20085;-75
2022/05/30 05:25:26;;;;;;;23.77;10.55;;;;;;;19.19;100.00;99783.13;4996868;28;20064;-74
2022/05/30 05:27:52;;;;;;;13.07;10.20;;;;;;;19.29;100.00;99779.56;5011798;28;20145;-76
2022/05/30 05:30:18;;;;;;;13.80;10.80;;;;;;;19.36;100.00;99786.47;5011286;28;20436;-75
2022/05/30 05:32:44;;;;;;;13.13;8.95;;;;;;;19.43;100.00;99775.94;5011020;28;20021;-77
2022/05/30 05:35:10;;;;;;;13.98;10.00;;;;;;;19.53;100.00;99762.72;5011232;28;20037;-76
2022/05/30 05:37:35;;;;;;;15.45;9.90;;;;;;;19.75;100.00;99786.06;5011140;28;20385;-76
2022/05/30 05:40:01;;;;;;;12.45;9.00;;;;;;;19.79;100.00;99777.28;5011230;28;20037;-76
2022/05/30 05:42:26;;;;;;;15.57;9.13;;;;;;;19.81;100.00;99783.38;5011418;28;20037;-76
2022/05/30 05:44:52;;;;;;;12.18;8.88;;;;;;;19.90;100.00;99781.53;5011230;28;20037;-74
2022/05/30 05:47:17;;;;;;;13.45;8.80;;;;;;;19.89;100.00;99791.16;5011126;28;20038;-76
2022/05/30 05:49:43;;;;;;;11.13;7.65;;;;;;;19.68;100.00;99798.34;5000904;28;20457;-77
2022/05/30 05:52:08;;;;;;;10.20;7.38;;;;;;;19.77;100.00;99800.00;4991391;28;20026;-74
2022/05/30 05:54:34;;;;;;;14.48;6.82;;;;;;;19.97;100.00;99798.94;4991443;28;20569;-76
2022/05/30 05:56:59;;;;;;;11.57;6.50;;;;;;;20.01;100.00;99806.72;4988501;28;20058;-76
2022/05/30 05:59:25;;;;;;;10.07;6.32;;;;;;;19.92;100.00;99806.84;4988549;28;20034;-76
2022/05/30 06:01:50;;;;;;;9.30;6.05;;;;;;;20.13;100.00;99825.81;4988349;28;20474;-76
2022/05/30 06:04:16;;;;;;;11.02;5.60;;;;;;;19.86;100.00;99810.41;4988772;28;20052;-76
2022/05/30 06:06:42;;;;;;;10.73;5.72;;;;;;;20.04;100.00;99811.91;4988525;28;20039;-76
2022/05/30 06:09:08;;;;;;;10.95;6.40;;;;;;;19.97;100.00;99794.53;4972392;28;20041;-77
2022/05/30 06:11:33;;;;;;;14.70;6.45;;;;;;;19.81;100.00;99820.03;4996042;28;20092;-74
2022/05/30 06:13:59;;;;;;;10.15;6.47;;;;;;;19.96;100.00;99813.78;5000023;28;20041;-76
2022/05/30 06:16:27;;;;;;;11.48;7.35;;;;;;;20.14;100.00;99827.53;5002621;28;20572;-76
2022/05/30 06:18:55;;;;;;;9.85;7.10;;;;;;;20.09;100.00;99817.13;4999667;28;20534;-78
2022/05/30 06:21:23;;;;;;;13.73;7.43;;;;;;;20.11;100.00;99817.97;4995825;28;20042;-77
2022/05/30 06:23:49;;;;;;;13.00;7.22;;;;;;;20.22;100.00;99815.19;4998473;28;20034;-76
2022/05/30 06:26:15;;;;;;;13.20;7.55;;;;;;;20.29;100.00;99803.75;4996545;28;20121;-75
2022/05/30 06:28:41;;;;;;;11.43;7.53;;;;;;;19.98;100.00;99777.94;4998339;28;20046;-76
2022/05/30 06:31:11;;;;;;;9.27;7.10;;;;;;;20.18;100.00;99814.34;4986445;28;20758;-74
2022/05/30 06:33:37;;;;;;;14.13;7.28;;;;;;;20.17;100.00;99807.38;4988362;28;20069;-75
2022/05/30 06:36:08;;;;;;;8.68;7.50;;;;;;;20.27;100.00;99816.00;4955805;28;20039;-75
2022/05/30 06:38:34;;;;;;;9.75;6.80;;;;;;;20.48;100.00;99827.94;4987559;28;20038;-78
2022/05/30 06:41:11;;;;;;;11.27;6.72;;;;;;;20.74;100.00;99825.88;4987357;28;20053;-80
2022/05/30 06:43:37;;;;;;;9.77;6.65;;;;;;;20.94;99.14;99841.31;4986587;28;20121;-78
2022/05/30 06:46:03;;;;;;;12.07;6.95;;;;;;;20.97;98.64;99844.75;5001780;28;20129;-73
2022/05/30 06:48:28;;;;;;;10.85;6.90;;;;;;;20.89;99.98;99848.38;5006195;28;20428;-77
2022/05/30 06:50:54;;;;;;;9.93;6.90;;;;;;;20.96;99.09;99824.63;5000568;28;20029;-76
2022/05/30 06:53:20;;;;;;;10.80;6.43;;;;;;;21.10;97.58;99845.41;5007606;28;20519;-75
2022/05/30 06:55:49;;;;;;;13.00;7.57;;;;;;;21.03;99.21;99840.28;5007730;28;20046;-76
2022/05/30 06:58:17;;;;;;;8.68;6.90;;;;;;;20.88;100.00;99849.28;5007912;28;20036;-75
2022/05/30 07:00:47;;;;;;;14.70;7.65;;;;;;;20.77;100.00;99842.44;5007887;28;20037;-76
2022/05/30 07:03:13;;;;;;;;;;;;;;;20.86;100.00;99854.53;5008244;28;20034;-77
2022/05/30 07:05:41;;;;;;;14.55;8.85;;;;;;;20.96;100.00;99857.88;5005876;28;19972;-75
2022/05/30 07:08:07;;;;;;;12.10;7.68;;;;;;;20.76;100.00;99817.09;5001667;28;20564;-75
2022/05/30 07:10:35;;;;;;;15.32;7.68;;;;;;;21.12;100.00;99848.88;4998470;28;20109;-75
2022/05/30 07:13:00;;;;;;;13.38;8.07;;;;;;;21.24;100.00;99854.81;5007525;28;20030;-75
2022/05/30 07:15:27;;;;;;;13.40;7.68;;;;;;;21.36;100.00;99832.72;5000789;28;20049;-74
2022/05/30 07:17:53;;;;;;;10.70;7.60;;;;;;;21.54;100.00;99852.53;5007594;28;20393;-77
2022/05/30 07:20:19;;;;;;;10.38;7.80;;;;;;;21.23;97.97;99832.94;4998418;28;20089;-75
2022/05/30 07:22:44;;;;;;;12.20;7.65;;;;;;;21.48;100.00;99857.00;4993944;28;20034;-75
2022/05/30 07:25:10;;;;;;;11.13;7.15;;;;;;;21.60;100.00;99853.31;4995793;28;20035;-75
2022/05/30 07:27:36;;;;;;;11.98;6.85;;;;;;;21.71;98.09;99862.75;4990703;28;20133;-74
2022/05/30 07:30:01;;;;;;;9.80;6.38;;;;;;;21.48;94.91;99833.38;4992817;28;20122;-75
2022/05/30 07:32:27;;;;;;;14.65;7.28;;;;;;;21.79;98.25;99855.59;4994266;28;20456;-72
2022/05/30 07:34:52;;;;;;;14.70;6.60;;;;;;;21.72;94.44;99846.09;4994259;28;20408;-75
2022/05/30 07:37:18;;;;;;;10.68;6.72;;;;;;;21.95;96.82;99864.06;4994186;28;20080;-75
2022/05/30 07:39:43;;;;;;;10.90;5.80;;;;;;;22.00;95.77;99866.59;4993787;28;20137;-75
2022/05/30 07:42:10;;;;;;;9.18;6.28;;;;;;;22.07;94.92;99863.81;4993753;28;20117;-75
2022/05/30 07:44:36;;;;;;;11.20;6.53;;;;;;;22.20;94.39;99880.19;4993947;28;20034;-74
2022/05/30 07:47:01;;;;;;;15.93;6.10;;;;;;;22.27;91.20;99873.06;4993859;28;20042;-75
2022/05/30 07:49:27;;;;;;;13.68;6.32;;;;;;;22.28;92.29;99873.03;4993584;28;20480;-75
2022/05/30 07:51:53;;;;;;;11.32;6.50;;;;;;;22.38;91.56;99876.34;4993967;28;20425;-75
2022/05/30 07:54:18;;;;;;;10.30;6.03;;;;;;;22.58;90.73;99883.81;4993522;28;20036;-74
2022/05/30 07:56:45;;;;;;;12.07;5.80;;;;;;;22.56;88.80;99890.00;5010864;28;20451;-75
2022/05/30 07:59:11;;;;;;;14.15;6.22;;;;;;;22.47;90.17;99867.41;5013267;28;20026;-75
2022/05/30 08:01:36;;;;;;;9.65;5.35;;;;;;;22.49;89.46;99860.31;5013365;28;20060;-73
2022/05/30 08:04:02;;;;;;;9.52;5.22;;;;;;;22.58;84.19;99865.41;5013401;28;20026;-75
2022/05/30 08:06:30;;;;;;;12.48;4.82;;;;;;;22.87;86.68;99881.44;5013166;28;20033;-75
2022/05/30 08:08:56;;;;;;;14.70;5.75;;;;;;;23.08;86.58;99893.22;5013103;28;20120;-75
2022/05/30 08:11:23;;;;;;;13.15;4.80;;;;;;;23.19;83.44;99891.22;5013346;28;20121;-73
2022/05/30 08:13:49;;;;;;;12.85;5.65;;;;;;;23.28;81.41;99887.50;5012860;28;20116;-75
2022/05/30 08:16:20;;;;;;;9.93;5.20;;;;;;;23.39;85.54;99879.28;5013270;28;20022;-75
2022/05/30 08:18:46;;;;;;;12.10;5.85;;;;;;;23.37;86.25;99889.88;5012580;28;20026;-75
2022/05/30 08:21:14;;;;;;;12.63;6.03;;;;;;;23.53;83.94;99890.34;5013043;28;20127;-75
2022/05/30 08:23:39;;;;;;;16.75;5.45;;;;;;;23.64;81.44;99884.81;5012881;28;20037;-79
2022/05/30 08:26:05;;;;;;;11.35;4.68;;;;;;;23.84;80.35;99889.53;5012565;28;20030;-75
2022/05/30 08:28:30;;;;;;;9.70;4.57;;;;;;;24.04;77.64;99899.56;5012774;28;20033;-75
2022/05/30 08:30:56;;;;;;;9.13;4.60;;;;;;;24.20;78.14;99907.91;5013214;28;20036;-73
2022/05/30 08:33:22;;;;;;;9.50;4.53;;;;;;;24.37;76.17;99893.38;5012301;28;20479;-72
2022/05/30 08:35:58;;;;;;;10.05;4.65;;;;;;;24.56;82.53;99891.03;5012820;28;20034;-75
2022/05/30 08:38:24;;;;;;;12.27;5.10;;;;;;;24.64;79.46;99893.47;5012226;28;20499;-75
2022/05/30 08:43:37;;;;;;;13.90;4.60;;;;;;;24.19;79.25;99865.78;5012813;28;20064;-76
2022/05/30 08:46:21;;;;;;;11.27;4.55;;;;;;;24.39;80.58;99868.66;5012530;28;20030;-76
2022/05/30 08:49:19;;;;;;;10.30;4.15;;;;;;;24.67;77.58;99906.59;5011950;28;20512;-74
2022/05/30 08:52:13;;;;;;;10.95;5.10;;;;;;;24.65;79.18;99898.72;5012472;28;20032;-74
2022/05/30 08:55:13;;;;;;;10.18;4.38;;;;;;;24.83;76.44;99902.56;5012385;28;20072;-74
2022/05/30 08:57:42;;;;;;;8.13;4.30;;;;;;;24.99;77.68;99907.38;5009905;28;20049;-74
2022/05/30 09:00:24;;;;;;;11.40;4.45;;;;;;;24.92;73.67;99911.13;5009414;28;20042;-75
2022/05/30 09:02:57;;;;;;;8.10;4.72;;;;;;;25.01;77.30;99903.75;5009340;28;20026;-74
2022/05/30 09:05:31;;;;;;;10.05;4.80;;;;;;;25.07;75.82;99910.63;5009485;28;20034;-74
2022/05/30 09:08:02;;;;;;;8.00;4.38;;;;;;;25.14;73.36;99913.94;5009187;28;20045;-74
2022/05/30 09:10:35;;;;;;;15.02;5.65;;;;;;;25.23;76.29;99910.13;5009395;28;20034;-75
2022/05/30 09:13:27;;;;;;;10.07;4.45;;;;;;;25.43;74.88;99914.78;5009223;28;20116;-75
2022/05/30 09:16:03;;;;;;;7.68;4.90;;;;;;;25.33;77.20;99893.06;4970248;28;20042;-75
2022/05/30 09:18:50;;;;;;;9.50;4.32;;;;;;;25.44;74.84;99905.94;4970106;28;20043;-75
2022/05/30 09:21:18;;;;;;;8.55;4.30;;;;;;;25.59;77.87;99915.13;4970205;28;20066;-74
2022/05/30 09:23:44;;;;;;;7.15;3.92;;;;;;;25.80;75.97;99924.09;4970281;28;20038;-74
2022/05/30 09:26:13;;;;;;;12.85;5.57;;;;;;;25.97;77.00;99915.56;4969681;28;20047;-74
2022/05/30 09:28:43;;;;;;;9.60;4.80;;;;;;;25.99;77.48;99926.94;4970038;28;20050;-75
2022/05/30 09:31:18;;;;;;;8.82;4.13;;;;;;;26.07;74.17;99926.69;4961311;28;20096;-75
2022/05/30 09:33:47;;;;;;;9.02;4.60;;;;;;;26.19;74.70;99913.03;4969639;28;20039;-77
2022/05/30 09:36:19;;;;;;;8.60;4.82;;;;;;;26.23;73.06;99925.25;4959388;28;20065;-77
2022/05/30 09:38:48;;;;;;;11.25;4.45;;;;;;;26.34;72.81;99923.97;4950286;29;20035;-74
2022/05/30 09:41:38;;;;;;;12.38;4.78;;;;;;;26.31;69.27;99899.34;4950290;29;20039;-73
2022/05/30 09:44:21;;;;;;;9.50;4.97;;;;;;;26.40;72.39;99923.75;4982664;28;20122;-75
2022/05/30 09:46:54;;;;;;;9.23;5.00;;;;;;;26.22;71.28;99880.28;4978912;28;20074;-74
2022/05/30 09:49:19;;;;;;;8.40;4.55;;;;;;;26.64;71.91;99916.63;4978238;28;20031;-75
2022/05/30 09:51:51;;;;;;;9.98;5.07;;;;;;;26.60;72.58;99941.53;4974321;28;20042;-74
2022/05/30 09:54:25;;;;;;;9.73;4.55;;;;;;;26.86;72.97;99924.66;5004892;28;20034;-74
2022/05/30 09:57:22;;;;;;;10.35;5.10;;;;;;;26.88;72.82;99930.75;4996968;28;20033;-75
2022/05/30 09:59:51;;;;;;;8.68;4.80;;;;;;;26.76;72.24;99936.53;5007673;28;20042;-73
2022/05/30 10:02:24;;;;;;;;;;;;;;;26.66;71.47;99932.50;5002702;28;20096;-70
2022/05/30 10:05:01;;;;;;;8.88;5.00;;;;;;;26.52;71.73;99941.81;5006533;28;19920;-73
2022/05/30 10:07:28;;;;;;;9.90;5.13;;;;;;;26.45;74.54;99935.03;5004827;28;20038;-73
2022/05/30 10:09:59;;;;;;;15.95;4.68;;;;;;;26.53;70.46;99938.25;5005891;28;20029;-72
2022/05/30 10:12:38;;;;;;;14.98;5.35;;;;;;;26.39;73.99;99911.44;5004545;28;20033;-73
2022/05/30 10:15:28;;;;;;;9.73;4.90;;;;;;;26.55;70.66;99941.69;5006306;28;20048;-73
2022/05/30 10:17:56;;;;;;;11.95;5.32;;;;;;;26.82;68.70;99923.06;5005088;28;20042;-75
2022/05/30 10:20:45;;;;;;;9.02;3.90;;;;;;;27.21;67.68;99924.16;5004897;28;20867;-74
2022/05/30 10:28:50;;;;;;;9.45;4.65;;;;;;;27.33;67.37;99923.66;4988015;28;20109;-71
2022/05/30 10:31:55;;;;;;;11.00;4.88;;;;;;;27.46;66.26;99931.97;4989469;28;20038;-72
2022/05/30 10:34:26;;;;;;;8.55;4.53;;;;;;;27.33;65.94;99936.03;4986530;28;20034;-73
2022/05/30 10:37:21;;;;;;;8.98;4.40;;;;;;;27.13;64.98;99935.06;4988113;28;20153;-71
2022/05/30 10:40:07;;;;;;;12.73;5.05;;;;;;;26.98;69.70;99917.13;4990049;28;20444;-70
2022/05/30 10:42:53;;;;;;;10.15;4.68;;;;;;;27.19;67.41;99937.47;4993792;28;20026;-74
2022/05/30 10:45:25;;;;;;;10.73;4.82;;;;;;;27.07;66.89;99932.69;4989243;28;20473;-75
2022/05/30 10:47:54;;;;;;;9.10;4.47;;;;;;;27.40;63.91;99934.88;4992649;28;20026;-74
2022/05/30 10:51:07;;;;;;;11.15;4.47;;;;;;;27.60;61.11;99907.53;4990285;28;20030;-75
2022/05/30 10:53:51;;;;;;;9.88;4.20;;;;;;;27.82;61.23;99933.13;4990045;28;20378;-73
2022/05/30 10:56:26;;;;;;;7.28;4.10;;;;;;;28.15;59.54;99922.88;4990670;28;20450;-72
2022/05/30 10:59:25;;;;;;;9.30;4.00;;;;;;;28.52;60.24;99925.63;5005806;28;20030;-73
2022/05/30 11:02:19;;;;;;;6.85;4.15;;;;;;;28.70;55.90;99927.44;4992886;28;20037;-77
2022/05/30 11:04:53;;;;;;;8.50;3.90;;;;;;;28.76;54.96;99920.97;4972200;28;20051;-72
2022/05/30 11:07:40;;;;;;;9.52;3.35;;;;;;;28.73;54.96;99921.13;4971917;28;20104;-74
2022/05/30 11:10:27;;;;;;;7.90;3.50;;;;;;;28.99;52.44;99921.69;4973682;28;20468;-74
2022/05/30 11:13:08;;;;;;;5.95;3.58;;;;;;;29.08;51.24;99915.91;4973515;28;20031;-73
2022/05/30 11:15:45;;;;;;;8.50;4.00;;;;;;;29.24;52.48;99909.84;4972946;28;20113;-74
2022/05/30 11:18:18;;;;;;;7.97;3.80;;;;;;;29.03;53.23;99909.94;4973309;28;20039;-72
2022/05/30 11:21:01;;;;;;;8.10;3.88;;;;;;;28.46;54.26;99908.16;4970444;28;20027;-74
2022/05/30 11:23:27;;;;;;;7.47;3.80;;;;;;;28.47;55.45;99917.84;4971529;28;20648;-74
2022/05/30 11:26:14;;;;;;;5.22;3.35;;;;;;;28.46;54.06;99917.94;4969675;28;20121;-74
2022/05/30 11:29:07;;;;;;;5.90;3.47;;;;;;;28.17;54.40;99885.63;4972435;28;20050;-75
2022/05/30 11:31:49;;;;;;;8.77;3.90;;;;;;;28.66;54.58;99917.00;4972186;28;20430;-76
2022/05/30 11:34:18;;;;;;;10.77;3.92;;;;;;;28.63;53.84;99925.13;4972485;28;20033;-76
2022/05/30 11:37:02;;;;;;;6.60;3.70;;;;;;;28.65;54.46;99921.47;4979165;28;20073;-73
2022/05/30 11:39:39;;;;;;;8.38;3.55;;;;;;;28.57;53.69;99918.28;4973690;28;20069;-74
2022/05/30 11:42:10;;;;;;;6.03;3.40;;;;;;;28.55;54.26;99917.53;4983504;28;20042;-75
2022/05/30 11:44:45;;;;;;;6.38;3.40;;;;;;;28.42;53.91;99922.53;4992868;28;20023;-73
2022/05/30 11:48:02;;;;;;;9.10;3.67;;;;;;;28.45;55.19;99927.72;4992851;28;20080;-78